»·PEaware :: N333ZS KSNA-KSMO

N333ZS :: KSNA-KSMO

FLIGHT INFORMATION

Flight Status: Arrived
Operator: Privately registered:
United States
More flights under this callsign
Pilot: Judd H. (29974)
Aircraft: CESSNA 182 SKYLANE
(C182)
More flights by this aircraft type
Origin: KSNA John Wayne-Orange Co
United States
Destination: KSMO Santa Monica Mun
United States
More flights between these airports :: More routes between these airports
Route: SLI V8 POXKU V363 BAYJY V186 DARTS
File this flight plan on PilotEdge
Remarks:
Altitude:
(Current/Filed)
6,000ft
Speed:
(Current/Filed)
120kts
Departed: 15-Oct-20 11:43 AM
Arrived: 15-Oct-20 12:18 PM
Distance/Time
Traveled:
35nm/0:35
Distance/Time
To Go:
Arrived

Flight Plot

Page will automatically refresh every two minutes.


Map Options




Map Legend


Flown Route
Filed Route
Departure Airport
Arrival Airport
Navaid (VOR, NDB)
Fix

Horizontal Profiles

Position Reports

Time Latitude Longitude Heading Altitude Ground
Speed
15-Oct-20 11:29 33.675118 -117.871701 220 59ft 0kts
15-Oct-20 11:30 33.675118 -117.871702 220 59ft 0kts
15-Oct-20 11:31 33.675117 -117.871703 220 59ft 0kts
15-Oct-20 11:32 33.675116 -117.871704 220 59ft 0kts
15-Oct-20 11:33 33.675115 -117.871705 220 59ft 0kts
15-Oct-20 11:34 33.675114 -117.871705 220 59ft 0kts
15-Oct-20 11:35 33.675113 -117.871706 220 59ft 0kts
15-Oct-20 11:36 33.675113 -117.871707 220 59ft 0kts
15-Oct-20 11:37 33.678706 -117.868562 26 59ft 27kts
15-Oct-20 11:38 33.680979 -117.866616 110 59ft 0kts
15-Oct-20 11:39 33.680867 -117.866380 119 59ft 0kts
15-Oct-20 11:40 33.680867 -117.866379 119 59ft 0kts
15-Oct-20 11:41 33.680274 -117.865980 207 59ft 8kts
15-Oct-20 11:42 33.665707 -117.882475 242 567ft 101kts
15-Oct-20 11:43 33.653325 -117.915739 243 1239ft 114kts
15-Oct-20 11:44 33.647697 -117.951652 290 1948ft 118kts
15-Oct-20 11:45 33.675073 -117.969286 342 2819ft 109kts
15-Oct-20 11:46 33.704529 -117.976042 351 3645ft 109kts
15-Oct-20 11:47 33.733968 -117.971907 30 4408ft 111kts
15-Oct-20 11:48 33.761130 -117.953982 23 5111ft 111kts
15-Oct-20 11:49 33.787126 -117.937361 24 5937ft 101kts
15-Oct-20 11:50 33.816575 -117.920152 26 6085ft 134kts
15-Oct-20 11:51 33.827965 -117.877126 74 6078ft 140kts
15-Oct-20 11:52 33.837846 -117.832038 73 6082ft 138kts
15-Oct-20 11:53 33.850645 -117.789424 30 6079ft 135kts
15-Oct-20 11:54 33.887393 -117.785277 3 6096ft 134kts
15-Oct-20 11:55 33.924686 -117.781692 3 6097ft 134kts
15-Oct-20 11:56 33.961617 -117.782694 354 5977ft 128kts
15-Oct-20 11:57 33.996955 -117.786503 335 5984ft 126kts
15-Oct-20 11:58 34.017274 -117.820238 304 5994ft 126kts
15-Oct-20 11:59 34.031240 -117.858945 291 5986ft 125kts
15-Oct-20 12:00 34.043737 -117.898179 291 5984ft 125kts
15-Oct-20 12:01 34.056222 -117.937348 291 5985ft 125kts
15-Oct-20 12:02 34.067607 -117.976980 289 5988ft 125kts
15-Oct-20 12:03 34.078787 -118.016740 289 5990ft 125kts
15-Oct-20 12:04 34.089942 -118.056264 289 5990ft 125kts
15-Oct-20 12:05 34.100631 -118.095617 289 5723ft 122kts
15-Oct-20 12:06 34.112745 -118.136121 291 5136ft 118kts
15-Oct-20 12:07 34.123998 -118.170706 290 4124ft 121kts
15-Oct-20 12:08 34.135623 -118.207511 294 3906ft 116kts
15-Oct-20 12:09 34.148605 -118.242853 295 3899ft 115kts
15-Oct-20 12:10 34.153677 -118.278924 233 3913ft 115kts
15-Oct-20 12:11 34.133671 -118.309481 225 3927ft 117kts
15-Oct-20 12:12 34.110331 -118.335820 226 3357ft 115kts
15-Oct-20 12:13 34.089898 -118.363783 220 2426ft 107kts
15-Oct-20 12:14 34.067913 -118.389628 222 1812ft 124kts
15-Oct-20 12:15 34.044749 -118.417075 222 1004ft 105kts
15-Oct-20 12:16 34.025585 -118.439804 223 413ft 87kts
15-Oct-20 12:17 34.013551 -118.453968 223 178ft 15kts
15-Oct-20 12:18 34.013110 -118.452706 45 178ft 5kts
15-Oct-20 12:19 34.013321 -118.452120 320 178ft 0kts

Navigation Log

Ident Type
Flight plan parsing failed, navigation log unavailable